METAR Data
IDs: Format: Raw Decoded Include TAF

Data at: 2142 UTC 25 Apr 2019

KSXU 252135Z AUTO 05011G19KT 10SM CLR 24/05 A3012 RMK AO2 T02410048
KSXU 252115Z AUTO 06005G17KT 10SM CLR 24/05 A3012 RMK AO2 T02380046
KSXU 252055Z AUTO 06013G20KT 10SM CLR 24/05 A3012 RMK AO2 T02390052
KSXU 252015Z AUTO 06015G20KT 10SM CLR 24/06 A3012 RMK AO2 T02360055
KSXU 251955Z AUTO 05015G20KT 10SM CLR 24/06 A3011 RMK AO2 T02390060
KSXU 251935Z AUTO 04016G24KT 10SM CLR 23/06 A3011 RMK AO2 T02320057
KSXU 251915Z AUTO 03015G22KT 10SM CLR 23/06 A3011 RMK AO2 T02310058
KSXU 251855Z AUTO 03016G24KT 10SM CLR 23/06 A3011 RMK AO2 T02250057
KSXU 251835Z AUTO 03018G26KT 10SM CLR 22/06 A3011 RMK AO2 T02220058
KSXU 251815Z AUTO 03021G26KT 10SM CLR 22/06 A3011 RMK AO2 T02190062
KSXU 251755Z AUTO 03020G26KT 10SM CLR 22/06 A3011 RMK AO2 T02150063 10215 20066
KSXU 251735Z AUTO 02019G25KT 10SM CLR 21/06 A3011 RMK AO2 T02100057
KSXU 251715Z AUTO 01019G27KT 10SM CLR 21/05 A3010 RMK AO2 T02070047
KSXU 251655Z AUTO 01021G29KT 10SM CLR 20/03 A3010 RMK AO2 T02040031
KSXU 251635Z AUTO 02021G27KT 10SM CLR 21/03 A3009 RMK AO2 T02060029
KSXU 251615Z AUTO 01019G25KT 10SM CLR 20/04 A3007 RMK AO2 T02030037
KSXU 251555Z AUTO 03014G22KT 10SM CLR 21/04 A3007 RMK AO2 T02060043
KSXU 251535Z AUTO 35009KT 10SM CLR 20/04 A3006 RMK AO2 T01960044
KSXU 251515Z AUTO 32008KT 10SM CLR 18/04 A3004 RMK AO2 T01840040
KSXU 251455Z AUTO 32007KT 10SM CLR 17/06 A3004 RMK AO2 T01680056
KSXU 251435Z AUTO 32004KT 10SM CLR 15/06 A3003 RMK AO2 T01480061
KSXU 251415Z AUTO 31005KT 10SM CLR 13/06 A3003 RMK AO2 T01330063
KSXU 251355Z AUTO 30004KT 10SM CLR 12/06 A3002 RMK AO2 T01190064
KSXU 251335Z AUTO 00000KT 10SM CLR 11/06 A3001 RMK AO2 T01090060
KSXU 251315Z AUTO 32004KT 10SM CLR 10/06 A3001 RMK AO2 T00950060
KSXU 251255Z AUTO 31006KT 10SM CLR 08/06 A3001 RMK AO2 T00790055
KSXU 251235Z AUTO 00000KT 10SM CLR 07/05 A2999 RMK AO2 T00700050
KSXU 251215Z AUTO 33005KT 10SM CLR 07/05 A2998 RMK AO2 T00730049
KSXU 251155Z AUTO 30003KT 10SM CLR 08/05 A2997 RMK AO2 T00790051 10123 20077
KSXU 251135Z AUTO 26007KT 10SM CLR 08/05 A2997 RMK AO2 T00830052
KSXU 251115Z AUTO 28006KT 10SM CLR 08/05 A2997 RMK AO2 T00810053
KSXU 251055Z AUTO 27006KT 10SM CLR 09/06 A2996 RMK AO2 T00910055
KSXU 251035Z AUTO 00000KT 10SM CLR 09/06 A2996 RMK AO2 T00920060
KSXU 251015Z AUTO 00000KT 10SM CLR 09/06 A2996 RMK AO2 T00900059
KSXU 250955Z AUTO 00000KT 10SM CLR 09/06 A2996 RMK AO2 T00900060
KSXU 250935Z AUTO 00000KT 10SM CLR 09/06 A2995 RMK AO2 T00940060
KSXU 250915Z AUTO 22003KT 10SM CLR 09/06 A2995 RMK AO2 T00930060
KSXU 250855Z AUTO 21005KT 10SM CLR 08/06 A2995 RMK AO2 T00840055
KSXU 250835Z AUTO 00000KT 10SM CLR 09/06 A2994 RMK AO2 T00880062
KSXU 250815Z AUTO 17005KT 10SM CLR 09/06 A2994 RMK AO2 T00900060
KSXU 250755Z AUTO 15003KT 10SM CLR 09/06 A2995 RMK AO2 T00920061
KSXU 250735Z AUTO 00000KT 10SM CLR 11/07 A2995 RMK AO2 T01100065
KSXU 250715Z AUTO 00000KT 10SM CLR 12/06 A2995 RMK AO2 T01170060
KSXU 250655Z AUTO 00000KT 10SM CLR 12/06 A2995 RMK AO2 T01150061
KSXU 250615Z AUTO 00000KT 10SM CLR 12/07 A2995 RMK AO2 T01220065
KSXU 250555Z AUTO 21003KT 10SM CLR 12/07 A2995 RMK AO2 T01240066 10213 20123 402170030
KSXU 250535Z AUTO 21003KT 10SM CLR 13/07 A2995 RMK AO2 T01250066
KSXU 250515Z AUTO 19003KT 10SM CLR 13/07 A2995 RMK AO2 T01270066
KSXU 250455Z AUTO 18003KT 10SM CLR 13/07 A2995 RMK AO2 T01300065
KSXU 250435Z AUTO 21005KT 10SM CLR 14/07 A2996 RMK AO2 T01400067
KSXU 250415Z AUTO 19003KT 10SM CLR 15/07 A2996 RMK AO2 T01450066
KSXU 250355Z AUTO 22005KT 10SM SCT120 15/07 A2996 RMK AO2 T01510066
KSXU 250335Z AUTO 22006KT 10SM BKN120 16/06 A2995 RMK AO2 T01600056
KSXU 250315Z AUTO 24005KT 10SM OVC120 16/06 A2995 RMK AO2 T01620056
KSXU 250255Z AUTO 24003KT 10SM BKN110 17/05 A2995 RMK AO2 T01650053
KSXU 250235Z AUTO 20003KT 10SM SCT100 17/05 A2994 RMK AO2 T01650051
KSXU 250215Z AUTO 19003KT 10SM BKN100 17/06 A2994 RMK AO2 T01720058
KSXU 250155Z AUTO 24003KT 10SM OVC100 18/05 A2994 RMK AO2 T01800053
KSXU 250135Z AUTO 23005KT 10SM SCT090 BKN110 19/05 A2993 RMK AO2 T01850051
KSXU 250115Z AUTO 23008KT 10SM BKN110 20/03 A2992 RMK AO2 T01960030
KSXU 250055Z AUTO 00000KT 10SM BKN110 20/02 A2992 RMK AO2 T02040022
KSXU 250035Z AUTO 00000KT 10SM BKN110 21/02 A2991 RMK AO2 T02060023
KSXU 250015Z AUTO 19005KT 10SM BKN100 20/02 A2991 RMK AO2 T02020024
KSXU 242355Z AUTO 20005KT 10SM CLR 21/03 A2991 RMK AO2 T02140027 10217 20161
KSXU 242335Z AUTO 26005KT 10SM SCT085 SCT110 22/02 A2991 RMK AO2 T02170024
KSXU 242315Z AUTO 16004KT 10SM CLR 21/03 A2991 RMK AO2 T02120026
KSXU 242255Z AUTO 00000KT 10SM CLR 21/02 A2991 RMK AO2 T02070023
KSXU 242235Z AUTO 13004KT 10SM SCT120 21/03 A2991 RMK AO2 T02120028
KSXU 242215Z AUTO 14003KT 10SM SCT120 21/03 A2992 RMK AO2 T02120026
KSXU 242155Z AUTO 08004KT 10SM SCT120 21/03 A2992 RMK AO2 T02110027
KSXU 242135Z AUTO 13005KT 10SM SCT120 21/02 A2993 RMK AO2 T02050022
KSXU 242115Z AUTO 09009KT 10SM BKN120 21/03 A2994 RMK AO2 T02120026
KSXU 242055Z AUTO 00000KT 10SM BKN110 20/02 A2995 RMK AO2 T02040024
KSXU 242035Z AUTO 06003KT 10SM SCT110 20/03 A2996 RMK AO2 T02020031
KSXU 242015Z AUTO 00000KT 10SM CLR 20/05 A2996 RMK AO2 T02020048
KSXU 241955Z AUTO 00000KT 10SM CLR 19/06 A2998 RMK AO2 T01910055
KSXU 241935Z AUTO 14005KT 10SM CLR 19/06 A2998 RMK AO2 T01890057
KSXU 241915Z AUTO 14006KT 10SM CLR 19/06 A2998 RMK AO2 T01850061
KSXU 241855Z AUTO 26003KT 10SM CLR 18/06 A2999 RMK AO2 T01770057
KSXU 241835Z AUTO 00000KT 10SM CLR 17/06 A2999 RMK AO2 T01670055
KSXU 241815Z AUTO 00000KT 10SM SCT036 17/07 A3000 RMK AO2 T01650066
KSXU 241755Z AUTO 10006KT 10SM SCT036 16/07 A3000 RMK AO2 T01610065 10161 20030
KSXU 241735Z AUTO 00000KT 10SM CLR 15/07 A3001 RMK AO2 T01480068
KSXU 241715Z AUTO 05006KT 10SM CLR 15/07 A3002 RMK AO2 T01480068
KSXU 241655Z AUTO 36003KT 10SM CLR 14/07 A3002 RMK AO2 T01410067
KSXU 241635Z AUTO 01009KT 310V030 10SM CLR 14/07 A3001 RMK AO2 T01400071
KSXU 241615Z AUTO 36007KT 10SM CLR 14/07 A3002 RMK AO2 T01350065
KSXU 241555Z AUTO 35007KT 10SM CLR 12/08 A3002 RMK AO2 T01240077
KSXU 241535Z AUTO 01005KT 10SM CLR 11/08 A3003 RMK AO2 T01100075
KSXU 241515Z AUTO 34004KT 10SM CLR 10/07 A3003 RMK AO2 T01000072
KSXU 241455Z AUTO 26003KT 10SM CLR 08/08 A3003 RMK AO2 T00830078
KSXU 241435Z AUTO 31003KT 10SM SCT003 07/07 A3002 RMK AO2 T00720072
KSXU 241415Z AUTO 00000KT 10SM BKN001 06/06 A3003 RMK AO2 T00630063
KSXU 241355Z AUTO 00000KT 1/2SM FG OVC001 06/06 A3003 RMK AO2 T00550055
KSXU 241335Z AUTO 00000KT 1/2SM FG OVC001 05/05 A3003 RMK AO2 T00500050
KSXU 241315Z AUTO 12003KT 1/4SM FG OVC001 04/04 A3003 RMK AO2 T00440044
KSXU 241255Z AUTO 12005KT M1/4SM FG OVC001 04/04 A3003 RMK AO2 T00370037
KSXU 241235Z AUTO 11008KT M1/4SM FG OVC001 03/03 A3002 RMK AO2 T00340034
KSXU 241215Z AUTO 11008KT 1/2SM FG OVC001 03/03 A3001 RMK AO2 T00310031
KSXU 241155Z AUTO 10006KT 1/4SM FG OVC001 04/04 A3000 RMK AO2 T00350035 10061 20035
KSXU 241135Z AUTO 11006KT 10SM CLR 04/04 A3000 RMK AO2 T00360036
KSXU 241115Z AUTO 12005KT 10SM CLR 04/04 A3000 RMK AO2 T00380037
KSXU 241055Z AUTO 13006KT 10SM CLR 04/04 A3000 RMK AO2 T00410040
KSXU 241035Z AUTO 15005KT 10SM CLR 04/04 A2999 RMK AO2 T00430041
KSXU 241015Z AUTO 21004KT 10SM CLR 05/05 A2999 RMK AO2 T00470045
KSXU 240955Z AUTO 00000KT 10SM CLR 05/05 A2998 RMK AO2 T00500047